createdAt,value
2023-04-12T00:02:06.080Z,98209.11
2023-04-12T00:05:24.004Z,98208.97
2023-04-12T00:08:40.715Z,98210.98
2023-04-12T00:11:58.021Z,98204.69
2023-04-12T00:15:16.517Z,98208.68
2023-04-12T00:18:32.883Z,98197.31
2023-04-12T00:21:49.134Z,98205.52
2023-04-12T00:25:06.234Z,98201.89
2023-04-12T00:28:22.878Z,98197.79
2023-04-12T00:31:40.060Z,98198.64
2023-04-12T00:34:57.534Z,98200.43
2023-04-12T00:38:15.456Z,98194.68
2023-04-12T00:41:32.241Z,98206.04
2023-04-12T00:44:48.761Z,98197.03
2023-04-12T00:48:05.518Z,98190.44
2023-04-12T00:51:23.535Z,98193.27
2023-04-12T00:54:41.326Z,98197.55
2023-04-12T00:58:00.263Z,98195.72
2023-04-12T01:01:18.235Z,98195.38
2023-04-12T01:04:38.026Z,98194.72
2023-04-12T01:08:01.728Z,98195.09
2023-04-12T01:11:24.807Z,98194.77
2023-04-12T01:14:48.592Z,98201.39
2023-04-12T01:18:11.207Z,98202.94
2023-04-12T01:21:33.730Z,98191.84
2023-04-12T01:25:04.814Z,98196.34
2023-04-12T01:28:26.204Z,98196.52
2023-04-12T01:31:43.984Z,98185.53
2023-04-12T01:35:01.509Z,98188.53
2023-04-12T01:38:18.631Z,98191.35
2023-04-12T01:41:34.955Z,98190.98
2023-04-12T01:44:51.340Z,98181.76
2023-04-12T01:48:08.513Z,98186.11
2023-04-12T01:51:33.790Z,98180.02
2023-04-12T01:54:54.320Z,98196.17
2023-04-12T01:58:13.198Z,98194.70
2023-04-12T02:01:31.968Z,98193.89
2023-04-12T02:04:49.547Z,98190.90
2023-04-12T02:08:06.856Z,98196.55
2023-04-12T02:11:23.423Z,98195.89
2023-04-12T02:14:40.093Z,98190.63
2023-04-12T02:17:56.728Z,98196.86
2023-04-12T02:21:14.053Z,98195.06
2023-04-12T02:24:31.860Z,98197.55
2023-04-12T02:27:49.692Z,98192.93
2023-04-12T02:31:06.971Z,98201.95
2023-04-12T02:34:23.861Z,98193.80
2023-04-12T02:37:42.475Z,98199.02
2023-04-12T02:40:58.814Z,98205.94
2023-04-12T02:44:15.314Z,98202.86
2023-04-12T02:47:33.787Z,98199.85
2023-04-12T02:50:50.954Z,98197.70
2023-04-12T02:54:09.061Z,98199.19
2023-04-12T02:57:30.275Z,98197.55
2023-04-12T03:00:48.984Z,98195.89
2023-04-12T03:04:06.352Z,98199.37
2023-04-12T03:07:31.452Z,98201.02
2023-04-12T03:10:48.034Z,98196.25
2023-04-12T03:14:05.330Z,98194.60
2023-04-12T03:17:22.151Z,98205.50
2023-04-12T03:20:40.198Z,98204.48
2023-04-12T03:24:00.063Z,98195.44
2023-04-12T03:27:16.739Z,98195.77
2023-04-12T03:30:33.531Z,98199.55
2023-04-12T03:33:49.942Z,98193.26
2023-04-12T03:37:09.039Z,98194.42
2023-04-12T03:40:27.395Z,98212.55
2023-04-12T03:43:45.484Z,98211.58
2023-04-12T03:47:03.645Z,98212.26
2023-04-12T03:50:23.162Z,98205.20
2023-04-12T03:53:43.836Z,98212.26
2023-04-12T03:57:02.995Z,98210.59
2023-04-12T04:00:36.986Z,98211.25
2023-04-12T04:03:56.340Z,98217.52
2023-04-12T04:07:14.364Z,98210.23
2023-04-12T04:10:33.115Z,98203.17
2023-04-12T04:13:49.997Z,98204.17
2023-04-12T04:17:08.153Z,98205.39
2023-04-12T04:20:26.006Z,98201.59
2023-04-12T04:23:45.573Z,98201.73
2023-04-12T04:27:03.571Z,98219.05
2023-04-12T04:30:23.550Z,98218.37
2023-04-12T04:33:39.909Z,98211.27
2023-04-12T04:36:58.598Z,98220.66
2023-04-12T04:40:21.493Z,98227.09
2023-04-12T04:43:40.969Z,98221.69
2023-04-12T04:46:57.585Z,98219.06
2023-04-12T04:50:16.569Z,98225.30
2023-04-12T04:53:32.952Z,98231.06
2023-04-12T04:56:49.661Z,98230.89
2023-04-12T05:00:08.899Z,98237.31
2023-04-12T05:03:29.769Z,98240.58
2023-04-12T05:06:45.361Z,98234.86
2023-04-12T05:10:02.407Z,98232.22
2023-04-12T05:13:19.859Z,98231.20
2023-04-12T05:16:36.947Z,98232.05
2023-04-12T05:19:57.679Z,98231.87
2023-04-12T05:23:15.325Z,98235.31
2023-04-12T05:26:31.674Z,98235.80
2023-04-12T05:29:48.095Z,98234.00
2023-04-12T05:33:08.082Z,98243.38
2023-04-12T05:36:26.899Z,98245.34
2023-04-12T05:39:43.481Z,98247.18
2023-04-12T05:43:00.552Z,98255.41
2023-04-12T05:46:18.524Z,98254.42
2023-04-12T05:49:38.838Z,98249.33
2023-04-12T05:52:58.464Z,98242.58
2023-04-12T05:56:17.731Z,98244.87
2023-04-12T05:59:34.248Z,98249.99
2023-04-12T06:02:51.434Z,98241.73
2023-04-12T06:06:08.088Z,98241.42
2023-04-12T06:09:25.729Z,98247.86
2023-04-12T06:12:42.654Z,98244.85
2023-04-12T06:15:59.595Z,98250.25
2023-04-12T06:19:19.274Z,98247.62
2023-04-12T06:22:36.729Z,98250.92
2023-04-12T06:25:55.459Z,98245.97
2023-04-12T06:29:12.062Z,98240.39
2023-04-12T06:32:29.211Z,98237.06
2023-04-12T06:35:46.018Z,98238.06
2023-04-12T06:39:02.494Z,98249.25
2023-04-12T06:42:21.713Z,98227.17
2023-04-12T06:45:38.031Z,98228.48
2023-04-12T06:48:54.592Z,98236.86
2023-04-12T06:52:10.942Z,98230.80
2023-04-12T06:55:30.231Z,98237.84
2023-04-12T06:58:46.622Z,98235.33
2023-04-12T07:02:03.821Z,98235.71
2023-04-12T07:05:21.629Z,98234.34
2023-04-12T07:08:43.273Z,98231.05
2023-04-12T07:11:59.558Z,98230.98
2023-04-12T07:15:24.692Z,98235.21
2023-04-12T07:18:53.312Z,98242.80
2023-04-12T07:22:10.050Z,98241.15
2023-04-12T07:25:28.122Z,98242.53
2023-04-12T07:28:44.961Z,98243.78
2023-04-12T07:32:01.767Z,98248.55
2023-04-12T07:35:19.209Z,98241.92
2023-04-12T07:38:35.605Z,98245.37
2023-04-12T07:41:52.725Z,98247.86
2023-04-12T07:45:09.347Z,98244.85
2023-04-12T07:48:25.820Z,98248.40
2023-04-12T07:51:43.404Z,98247.20
2023-04-12T07:55:00.156Z,98246.50
2023-04-12T07:58:16.526Z,98243.17
2023-04-12T08:01:33.181Z,98238.92
2023-04-12T08:04:49.577Z,98236.61
2023-04-12T08:08:07.057Z,98239.17
2023-04-12T08:11:23.265Z,98247.67
2023-04-12T08:14:40.877Z,98243.63
2023-04-12T08:17:57.605Z,98237.12
2023-04-12T08:21:14.658Z,98240.98
2023-04-12T08:24:31.303Z,98244.15
2023-04-12T08:27:51.314Z,98237.69
2023-04-12T08:31:08.417Z,98241.08
2023-04-12T08:34:26.051Z,98237.56
2023-04-12T08:37:42.858Z,98232.38
2023-04-12T08:40:59.711Z,98238.95
2023-04-12T08:44:18.502Z,98234.28
2023-04-12T08:47:35.233Z,98229.88
2023-04-12T08:50:54.696Z,98229.53
2023-04-12T08:54:09.225Z,98228.52
2023-04-12T08:57:26.033Z,98223.49
2023-04-12T09:00:44.259Z,98219.08
2023-04-12T09:04:01.005Z,98226.33
2023-04-12T09:07:18.661Z,98217.23
2023-04-12T09:10:43.744Z,98218.59
2023-04-12T09:14:02.311Z,98213.10
2023-04-12T09:17:34.734Z,98216.30
2023-04-12T09:20:53.598Z,98210.60
2023-04-12T09:24:18.565Z,98215.59
2023-04-12T09:27:35.352Z,98209.70
2023-04-12T09:30:53.881Z,98204.25
2023-04-12T09:34:18.608Z,98207.67
2023-04-12T09:37:35.216Z,98201.89
2023-04-12T09:40:51.998Z,98197.27
2023-04-12T09:44:10.505Z,98199.32
2023-04-12T09:47:28.300Z,98196.14
2023-04-12T09:50:45.654Z,98193.30
2023-04-12T09:54:04.721Z,98179.24
2023-04-12T09:57:24.188Z,98188.91
2023-04-12T10:00:42.489Z,98179.41
2023-04-12T10:03:59.924Z,98176.78
2023-04-12T10:07:17.878Z,98164.03
2023-04-12T10:10:34.447Z,98167.55
2023-04-12T10:13:53.050Z,98165.11
2023-04-12T10:17:11.877Z,98163.89
2023-04-12T10:20:30.421Z,98155.88
2023-04-12T10:23:51.216Z,98161.99
2023-04-12T10:27:07.789Z,98154.45
2023-04-12T10:30:36.368Z,98155.46
2023-04-12T10:33:54.029Z,98148.27
2023-04-12T10:37:11.175Z,98148.22
2023-04-12T10:40:28.286Z,98146.94
2023-04-12T10:43:45.070Z,98147.13
2023-04-12T10:47:02.263Z,98137.75
2023-04-12T10:50:39.776Z,98136.74
2023-04-12T10:53:57.465Z,98136.27
2023-04-12T10:57:17.594Z,98135.88
2023-04-12T11:00:45.824Z,98134.25
2023-04-12T11:04:25.350Z,98132.17
2023-04-12T11:08:02.875Z,98131.36
2023-04-12T11:11:30.287Z,98127.88
2023-04-12T11:14:53.859Z,98136.03
2023-04-12T11:18:16.569Z,98128.08
2023-04-12T11:21:34.386Z,98132.75
2023-04-12T11:24:54.469Z,98124.05
2023-04-12T11:28:21.381Z,98124.86
2023-04-12T11:31:31.358Z,98121.98
2023-04-12T11:34:49.161Z,98120.41
2023-04-12T11:38:06.089Z,98116.55
2023-04-12T11:41:24.884Z,98121.67
2023-04-12T11:44:56.475Z,98108.63
2023-04-12T11:48:04.178Z,98109.05
2023-04-12T11:51:34.607Z,98112.09
2023-04-12T11:54:59.388Z,98104.38
2023-04-12T11:58:15.857Z,98101.48
2023-04-12T12:01:33.243Z,98098.66
2023-04-12T12:04:53.280Z,98099.07
2023-04-12T12:08:10.740Z,98090.92
2023-04-12T12:11:28.395Z,98097.66
2023-04-12T12:14:45.588Z,98087.23
2023-04-12T12:18:03.858Z,98090.48
2023-04-12T12:21:23.788Z,98085.59
2023-04-12T12:24:43.614Z,98090.09
2023-04-12T12:28:06.473Z,98079.48
2023-04-12T12:31:27.505Z,98074.19
2023-04-12T12:34:46.157Z,98066.04
2023-04-12T12:38:05.737Z,98070.12
2023-04-12T12:41:30.822Z,98063.78
2023-04-12T12:44:48.355Z,98057.84
2023-04-12T12:48:09.104Z,98047.45
2023-04-12T12:51:28.284Z,98055.41
2023-04-12T12:54:46.472Z,98045.20
2023-04-12T12:58:10.104Z,98042.75
2023-04-12T13:01:28.519Z,98039.48
2023-04-12T13:04:48.808Z,98036.23
2023-04-12T13:08:06.637Z,98035.81
2023-04-12T13:11:23.547Z,98033.34
2023-04-12T13:14:41.040Z,98031.51
2023-04-12T13:17:59.577Z,98026.61
2023-04-12T13:21:17.298Z,98020.91
2023-04-12T13:24:33.584Z,98024.16
2023-04-12T13:27:52.241Z,98027.45
2023-04-12T13:31:10.961Z,98016.59
2023-04-12T13:34:27.527Z,98022.73
2023-04-12T13:37:44.933Z,98009.88
2023-04-12T13:41:01.862Z,98008.23
2023-04-12T13:44:18.853Z,98011.31
2023-04-12T13:47:37.266Z,98019.06
2023-04-12T13:50:55.499Z,98012.12
2023-04-12T13:54:12.795Z,98004.58
2023-04-12T13:57:29.498Z,98007.22
2023-04-12T14:00:46.347Z,98008.84
2023-04-12T14:04:02.741Z,98008.84
2023-04-12T14:07:19.755Z,98003.73
2023-04-12T14:10:37.443Z,98006.81
2023-04-12T14:13:53.972Z,98000.07
2023-04-12T14:17:10.614Z,97999.87
2023-04-12T14:20:27.487Z,97999.45
2023-04-12T14:23:44.124Z,98007.20
2023-04-12T14:27:02.014Z,98001.71
2023-04-12T14:30:19.952Z,97996.20
2023-04-12T14:33:36.507Z,98001.29
2023-04-12T14:36:57.219Z,97996.81
2023-04-12T14:40:15.773Z,97999.06
2023-04-12T14:43:32.737Z,98009.25
2023-04-12T14:46:49.486Z,98009.25
2023-04-12T14:50:06.421Z,98001.70
2023-04-12T14:53:24.019Z,98008.42
2023-04-12T14:56:47.832Z,97999.42
2023-04-12T14:59:59.573Z,97997.58
2023-04-12T15:03:16.424Z,97994.13
2023-04-12T15:11:29.475Z,97988.82
2023-04-12T15:14:46.283Z,97991.27
2023-04-12T15:18:04.307Z,97990.84
2023-04-12T15:21:21.371Z,97991.27
2023-04-12T15:24:37.822Z,97986.77
2023-04-12T15:27:54.974Z,97981.45
2023-04-12T15:31:12.928Z,97975.95
2023-04-12T15:34:31.018Z,97971.66
2023-04-12T15:37:47.624Z,97964.51
2023-04-12T15:41:07.637Z,97967.99
2023-04-12T15:44:25.981Z,97959.00
2023-04-12T15:47:42.380Z,97956.14
2023-04-12T15:51:00.675Z,97958.99
2023-04-12T15:54:17.326Z,97948.60
2023-04-12T15:57:34.492Z,97943.86
2023-04-12T16:00:51.321Z,97947.52
2023-04-12T16:04:08.049Z,97950.76
2023-04-12T16:07:25.313Z,97948.53
2023-04-12T16:10:43.777Z,97939.14
2023-04-12T16:14:01.347Z,97938.52
2023-04-12T16:17:21.872Z,97936.28
2023-04-12T16:20:38.431Z,97935.06
2023-04-12T16:23:56.480Z,97942.39
2023-04-12T16:27:13.697Z,97938.09
2023-04-12T16:30:30.656Z,97936.28
2023-04-12T16:33:47.470Z,97935.45
2023-04-12T16:37:04.512Z,97924.22
2023-04-12T16:40:22.440Z,97916.86
2023-04-12T16:43:39.081Z,97927.66
2023-04-12T16:46:57.724Z,97937.83
2023-04-12T16:50:16.449Z,97925.22
2023-04-12T16:56:36.421Z,97924.80
2023-04-12T16:59:53.495Z,97921.34
2023-04-12T17:03:10.983Z,97919.50
2023-04-12T17:06:29.001Z,97921.52
2023-04-12T17:09:46.705Z,97916.80
2023-04-12T17:13:05.422Z,97923.10
2023-04-12T17:16:22.374Z,97919.63
2023-04-12T17:19:39.237Z,97923.49
2023-04-12T17:29:03.316Z,97901.02
2023-04-12T17:32:22.139Z,97892.44
2023-04-12T17:35:39.304Z,97895.88
2023-04-12T17:41:59.495Z,97890.13
2023-04-12T17:45:19.382Z,97891.92
2023-04-12T17:48:38.211Z,97893.13
2023-04-12T17:51:56.928Z,97904.08
2023-04-12T17:55:18.055Z,97911.16
2023-04-12T17:58:35.356Z,97907.47
2023-04-12T18:01:53.755Z,97903.92
2023-04-12T18:05:17.005Z,97903.48
2023-04-12T18:08:33.437Z,97898.80
2023-04-12T18:11:50.250Z,97911.86
2023-04-12T18:15:09.281Z,97911.02
2023-04-12T18:18:26.544Z,97918.72
2023-04-12T18:21:48.755Z,97915.07
2023-04-12T18:28:08.797Z,97918.72
2023-04-12T18:31:26.179Z,97919.12
2023-04-12T18:34:42.777Z,97912.31
2023-04-12T18:38:00.789Z,97910.88
2023-04-12T18:41:23.038Z,97914.08
2023-04-12T18:44:42.343Z,97904.70
2023-04-12T18:48:01.120Z,97913.59
2023-04-12T18:51:18.361Z,97898.74
2023-04-12T18:54:36.235Z,97905.06
2023-04-12T18:57:54.209Z,97903.42
2023-04-12T19:01:14.711Z,97903.02
2023-04-12T19:04:31.436Z,97895.84
2023-04-12T19:07:51.751Z,97901.33
2023-04-12T19:11:08.616Z,97890.92
2023-04-12T19:14:31.443Z,97890.31
2023-04-12T19:17:51.834Z,97881.95
2023-04-12T19:21:12.147Z,97883.75
2023-04-12T19:24:29.473Z,97883.31
2023-04-12T19:27:47.093Z,97883.81
2023-04-12T19:31:04.921Z,97887.59
2023-04-12T19:34:22.878Z,97883.25
2023-04-12T19:40:42.836Z,97875.20
2023-04-12T19:44:00.507Z,97870.14
2023-04-12T19:47:17.892Z,97869.69
2023-04-12T19:50:37.272Z,97867.11
2023-04-12T20:00:01.244Z,97863.51
2023-04-12T20:03:17.622Z,97856.23
2023-04-12T20:06:34.163Z,97854.20
2023-04-12T20:12:55.423Z,97862.80
2023-04-12T20:16:14.014Z,97861.91
2023-04-12T20:19:30.829Z,97861.38
2023-04-12T20:22:49.040Z,97869.83
2023-04-12T20:26:06.531Z,97860.33
2023-04-12T20:29:23.272Z,97859.88
2023-04-12T20:32:44.676Z,97857.97
2023-04-12T20:36:02.135Z,97857.85
2023-04-12T20:39:20.648Z,97848.95
2023-04-12T20:42:37.286Z,97852.88
2023-04-12T20:45:54.774Z,97851.69
2023-04-12T20:49:11.895Z,97847.86
2023-04-12T20:52:28.622Z,97848.86
2023-04-12T20:58:50.721Z,97850.12
2023-04-12T21:02:07.950Z,97852.64
2023-04-12T21:05:25.119Z,97851.48
2023-04-12T21:08:44.058Z,97852.22
2023-04-12T21:12:02.395Z,97841.75
2023-04-12T21:15:25.180Z,97842.69
2023-04-12T21:18:42.426Z,97849.48
2023-04-12T21:21:59.135Z,97844.43
2023-04-12T21:25:19.090Z,97845.98
2023-04-12T21:28:35.450Z,97837.61
2023-04-12T21:31:51.962Z,97844.89
2023-04-12T21:35:10.783Z,97841.30
2023-04-12T21:41:30.644Z,97825.81
2023-04-12T21:44:48.648Z,97827.81
2023-04-12T21:48:05.063Z,97817.91
2023-04-12T21:51:22.000Z,97819.05
2023-04-12T21:57:42.438Z,97811.34
2023-04-12T22:00:59.700Z,97813.78
2023-04-12T22:04:16.111Z,97806.08
2023-04-12T22:07:34.658Z,97809.70
2023-04-12T22:13:54.543Z,97807.60
2023-04-12T22:17:12.853Z,97795.34
2023-04-12T22:20:29.942Z,97795.23
2023-04-12T22:26:49.709Z,97798.27
2023-04-12T22:30:08.737Z,97791.90
2023-04-12T22:33:25.245Z,97787.98
2023-04-12T22:36:44.432Z,97785.34
2023-04-12T22:40:02.828Z,97780.77
2023-04-12T22:43:21.922Z,97784.22
2023-04-12T22:46:40.320Z,97778.95
2023-04-12T22:49:59.126Z,97780.28
2023-04-12T22:53:16.891Z,97783.07
2023-04-12T22:59:36.927Z,97782.23
2023-04-12T23:02:57.258Z,97781.59
2023-04-12T23:06:15.511Z,97776.66
2023-04-12T23:09:33.831Z,97772.39
2023-04-12T23:12:51.123Z,97758.62
2023-04-12T23:16:07.926Z,97767.61
2023-04-12T23:19:24.328Z,97762.50
2023-04-12T23:22:55.746Z,97761.03
2023-04-12T23:26:01.932Z,97749.73
2023-04-12T23:29:18.721Z,97749.88
2023-04-12T23:32:35.213Z,97737.61
2023-04-12T23:35:53.359Z,97733.34
2023-04-12T23:39:11.411Z,97728.71
2023-04-12T23:42:27.743Z,97720.34
2023-04-12T23:45:44.903Z,97717.72
2023-04-12T23:49:01.955Z,97714.60
2023-04-12T23:52:19.026Z,97714.60
2023-04-12T23:58:38.579Z,97690.02
